ATCF
   

ATCF > Documentation > Sécurité

Sécurité

Flash
Attention: l’hiver est là !
COMMISSION FORMATION - SECURITE
Vigilance sur les METAR, TAF, TEMSI…
LFLS 102100Z AUTO 36011KT 3500NDV SN BR SCT012 OVC018 00/M01 Q1009
Prenez garde au givrage carburateur.
Le givrage alourdit l'avion et modifie ses caractéristiques
aérodynamiques.
Température hivernale, laissez le temps au moteur de
chauffer avant d’entreprendre un décollage.
L’hiver est propice aux faibles visibilités, à la neige, au plafond bas…
N°8 - Novembre 2010
Je fais demi-tour !
Quand la météo se dégrade,
que le vent s’intensifie
ou que la visibilité diminue,
stoppez votre nav’
ou modifiez votre cap!
COMMISSION SÉCURITÉ

Revenir en haut de la page

© 2011-2014 "Aéro Touring Club de France"Développé par Yann Gascuel, Anthony Branca & Cyril Rondeau